Latest Weather Observations for Clare

IDS60801

Issued at 9:01 pm CST Monday 25 September 2017 (issued every 30 minutes, with the page automatically refreshed every 10 minutes)

About weather observations | Map of weather stations | Latest weather observations for SA | Other Formats
Station Details ID: 021131 Name: CLARE HIGH SCHOOL Lat: -33.82 Lon: 138.59 Height: 395.0 m
Data from the previous 72 hours. | See also: Recent months at Clare
Date/Time
CST
Temp
°C
App
Temp
°C
Dew
Point
°C
Rel
Hum
%
Delta-T
°C
Wind Press
QNH
hPa
Press
MSL
hPa
Rain since
9am
mm
Dir  Spd
km/h
Gust
km/h
Spd
kts
Gust
kts
25/09:00pm 9.9 7.7 6.4 79 1.7 ESE 7 13 4 7 1015.1 1015.2 0.0
25/08:30pm 10.6 7.7 6.7 77 1.9 SE 11 17 6 9 1014.9 - 0.0
25/08:00pm 11.0 7.7 6.4 73 2.2 SE 13 20 7 11 1014.7 - 0.0
25/07:30pm 11.3 9.0 5.8 69 2.6 SE 7 11 4 6 1014.3 - 0.0
25/07:00pm 11.7 9.4 5.6 66 2.9 SE 7 9 4 5 1014.0 - 0.0
25/06:30pm 12.8 10.6 5.5 61 3.5 SE 6 9 3 5 1013.7 - 0.0
25/06:00pm 13.9 11.1 5.3 56 4.1 SSE 9 13 5 7 1013.6 1013.6 0.0
25/05:30pm 15.2 12.4 5.1 51 4.9 SSE 9 15 5 8 1013.3 - 0.0
25/05:00pm 16.2 13.2 6.1 51 5.0 S 11 17 6 9 1013.2 - 0.0
25/04:30pm 16.9 13.6 4.3 43 6.1 S 11 17 6 9 1013.0 - 0.0
25/04:00pm 17.2 13.6 4.9 44 6.0 SSW 13 22 7 12 1013.1 - 0.0
25/03:30pm 17.0 13.2 4.0 42 6.2 S 13 24 7 13 1013.0 - 0.0
25/03:00pm 16.5 12.6 3.6 42 6.1 S 13 20 7 11 1013.0 1013.0 0.0
25/02:30pm 16.5 12.6 3.2 41 6.2 S 13 20 7 11 1013.2 - 0.0
25/02:00pm 16.4 12.9 3.5 42 6.1 WSW 11 19 6 10 1013.7 - 0.0
25/01:30pm 16.0 11.8 1.7 38 6.5 WSW 13 22 7 12 1013.8 - 0.0
25/01:00pm 16.0 12.2 3.8 44 5.8 SW 13 22 7 12 1014.1 - 0.0
25/12:30pm 15.2 11.8 4.0 47 5.3 SW 11 19 6 10 1013.9 - 0.0
25/12:00pm 14.6 10.1 4.0 49 5.0 SW 17 24 9 13 1014.1 1014.2 0.0
25/11:30am 14.5 11.5 6.1 57 4.1 W 11 19 6 10 1014.1 - 0.0
25/11:00am 14.1 10.5 6.7 61 3.7 WNW 15 24 8 13 1014.4 - 0.0
25/10:30am 13.2 9.2 5.1 58 3.8 W 15 26 8 14 1014.1 - 0.0
25/10:00am 12.4 8.9 3.6 55 4.0 WSW 11 20 6 11 1014.2 - 0.0
25/09:30am 12.2 8.7 5.4 63 3.2 SW 13 22 7 12 1014.1 - 0.0
25/09:00am 11.6 7.7 5.3 65 3.0 W 15 20 8 11 1014.3 1014.4 0.0
25/08:30am 10.9 7.5 7.6 80 1.6 WNW 15 22 8 12 1014.2 - 0.0
25/08:00am 9.3 6.9 6.9 85 1.2 NW 9 17 5 9 1013.8 - 0.0
25/07:30am 7.3 6.3 7.2 99 0.0 E 2 7 1 4 1013.5 - 0.0
25/07:00am 5.6 3.8 5.5 99 0.0 ESE 4 7 2 4 1012.6 - 0.0
25/06:30am 3.8 2.4 3.7 99 0.0 CALM 0 0 0 0 1012.6 - 0.0
25/06:00am 4.0 2.7 3.9 99 0.0 CALM 0 6 0 3 1011.9 1012.0 0.0
25/05:30am 4.4 2.4 4.3 99 0.0 NNW 4 6 2 3 1011.3 - 0.0
25/05:00am 5.0 3.5 4.9 99 0.0 E 2 6 1 3 1010.9 - 0.0
25/04:30am 5.8 4.8 5.5 98 0.1 CALM 0 6 0 3 1011.0 - 0.0
25/04:00am 6.1 3.8 5.5 96 0.3 NW 7 9 4 5 1010.8 - 0.0
25/03:30am 7.1 4.2 6.5 96 0.3 WNW 11 15 6 8 1010.8 - 0.0
25/03:00am 7.6 4.7 6.5 93 0.5 WNW 11 19 6 10 1010.8 1010.8 0.0
25/02:30am 7.7 4.8 6.3 91 0.7 W 11 17 6 9 1010.7 - 0.0
25/02:00am 7.4 4.4 6.2 92 0.6 W 11 15 6 8 1010.3 - 0.0
25/01:30am 7.5 4.5 6.0 90 0.7 W 11 19 6 10 1010.5 - 0.0
25/01:00am 7.7 4.3 6.0 89 0.8 W 13 19 7 10 1010.7 - 0.0
25/12:30am 8.1 4.3 5.9 86 1.0 W 15 26 8 14 1010.8 - 0.0
25/12:00am 8.2 4.8 6.0 86 1.0 W 13 20 7 11 1010.7 1010.7 0.0
 
Date/Time
CST
Temp
°C
App
Temp
°C
Dew
Point
°C
Rel
Hum
%
Delta-T
°C
Wind Press
QNH
hPa
Press
MSL
hPa
Rain since
9am
mm
Dir  Spd
km/h
Gust
km/h
Spd
kts
Gust
kts
24/11:30pm 8.5 5.1 6.0 84 1.2 W 13 17 7 9 1010.7 - 0.0
24/11:00pm 8.5 5.5 6.1 85 1.1 W 11 20 6 11 1010.8 - 0.0
24/10:30pm 8.8 5.8 6.1 83 1.3 W 11 19 6 10 1010.8 - 0.0
24/10:00pm 9.3 5.9 5.9 79 1.6 WSW 13 24 7 13 1010.8 - 0.0
24/09:30pm 9.3 6.2 5.7 78 1.7 W 11 24 6 13 1010.6 - 0.0
24/09:00pm 9.4 6.1 4.8 73 2.1 W 11 17 6 9 1010.5 1010.5 0.0
24/08:30pm 9.7 6.0 4.5 70 2.4 WSW 13 19 7 10 1010.0 - 0.0
24/08:00pm 9.9 6.1 4.1 67 2.6 WSW 13 24 7 13 1009.6 - 0.0
24/07:30pm 9.9 6.5 3.9 66 2.7 WSW 11 17 6 9 1009.2 - 0.0
24/07:00pm 10.7 6.5 4.0 63 3.0 WSW 15 24 8 13 1008.7 - 0.0
24/06:30pm 11.3 6.7 3.8 60 3.4 WSW 17 30 9 16 1008.1 - 0.0
24/06:00pm 12.5 7.9 3.7 55 4.0 WSW 17 28 9 15 1007.8 1007.8 0.0
24/05:30pm 13.8 8.7 3.3 49 4.8 WSW 19 32 10 17 1007.5 - 0.0
24/05:00pm 13.9 8.6 3.1 48 4.9 W 20 39 11 21 1007.3 - 0.0
24/04:30pm 14.7 8.5 4.4 50 4.9 WSW 26 41 14 22 1006.8 - 0.0
24/04:00pm 15.1 10.1 3.6 46 5.4 W 19 32 10 17 1006.6 - 0.0
24/03:30pm 15.6 10.7 4.3 47 5.4 W 19 33 10 18 1006.4 - 0.0
24/03:00pm 15.5 10.4 4.2 47 5.4 WNW 20 35 11 19 1006.3 1006.3 0.0
24/02:30pm 15.3 9.2 4.7 49 5.1 WNW 26 41 14 22 1006.4 - 0.0
24/02:00pm 15.0 10.0 4.4 49 5.0 W 20 35 11 19 1006.6 - 0.0
24/01:30pm 15.6 10.3 4.9 49 5.2 W 22 39 12 21 1006.6 - 0.0
24/01:00pm 13.7 9.4 5.3 57 4.0 W 17 32 9 17 1006.8 - 0.0
24/12:30pm 14.3 8.7 5.4 55 4.3 WNW 24 39 13 21 1007.0 - 0.0
24/12:00pm 14.9 8.9 5.4 53 4.6 WNW 26 35 14 19 1007.1 1007.1 0.0
24/11:30am 13.8 8.0 4.4 53 4.4 W 24 44 13 24 1007.4 - 0.0
24/11:13am 14.4 8.1 5.5 55 4.3 WNW 28 50 15 27 1007.3 - 0.0
24/11:00am 13.6 7.1 4.7 55 4.2 WNW 28 44 15 24 1007.5 - 0.0
24/10:49am 13.0 6.5 4.9 58 3.8 W 28 46 15 25 1007.4 - 0.0
24/10:30am 13.8 8.3 5.9 59 3.8 WNW 24 44 13 24 1007.5 - 0.0
24/10:00am 13.3 7.9 6.4 63 3.4 W 24 39 13 21 1007.4 - 0.0
24/09:30am 12.9 7.0 6.0 63 3.3 WNW 26 44 14 24 1007.4 - 0.0
24/09:00am 11.9 7.4 7.0 72 2.4 WNW 20 35 11 19 1007.5 1007.4 0.0
24/08:30am 11.3 7.2 7.8 79 1.7 WNW 19 30 10 16 1007.4 - 0.0
24/08:00am 10.4 6.8 8.2 86 1.1 WNW 17 28 9 15 1007.1 - 0.0
24/07:30am 10.0 6.0 8.1 88 0.9 WNW 19 28 10 15 1006.8 - 0.0
24/07:00am 9.3 6.1 8.4 94 0.4 NW 15 24 8 13 1006.5 - 0.0
24/06:30am 8.9 6.0 8.3 96 0.3 WNW 13 20 7 11 1006.3 - 0.0
24/06:00am 8.7 5.4 8.1 96 0.3 WNW 15 24 8 13 1006.0 1006.0 0.0
24/05:30am 9.4 5.7 8.0 91 0.7 WNW 17 26 9 14 1005.7 - 0.0
24/05:00am 10.0 6.0 8.1 88 0.9 WNW 19 26 10 14 1005.4 - 0.0
24/04:30am 10.2 6.5 7.8 85 1.2 WNW 17 24 9 13 1005.3 - 0.0
24/04:00am 10.3 6.5 7.4 82 1.4 WNW 17 26 9 14 1005.0 - 0.0
24/03:30am 10.4 6.8 6.9 79 1.7 NW 15 24 8 13 1004.9 - 0.0
24/03:00am 10.5 5.9 6.6 77 1.9 WNW 20 30 11 16 1005.0 1004.9 0.0
24/02:30am 9.8 6.0 5.8 76 1.9 WNW 15 22 8 12 1005.2 - 0.0
24/02:00am 10.6 6.8 5.6 71 2.4 WNW 15 24 8 13 1005.2 - 0.0
24/01:30am 11.0 6.3 5.1 67 2.8 WNW 19 24 10 13 1005.4 - 0.0
24/01:00am 11.2 6.4 4.7 64 3.0 WNW 19 32 10 17 1005.8 - 0.0
24/12:30am 10.9 6.9 5.0 67 2.7 WNW 15 22 8 12 1005.9 - 0.0
24/12:00am 11.4 6.7 5.3 66 2.9 WNW 19 35 10 19 1005.9 1005.9 0.0
 
Date/Time
CST
Temp
°C
App
Temp
°C
Dew
Point
°C
Rel
Hum
%
Delta-T
°C
Wind Press
QNH
hPa
Press
MSL
hPa
Rain since
9am
mm
Dir  Spd
km/h
Gust
km/h
Spd
kts
Gust
kts
23/11:30pm 12.5 6.8 5.0 60 3.5 WNW 24 43 13 23 1005.9 - 0.0
23/11:00pm 11.3 7.7 6.6 73 2.3 WNW 15 22 8 12 1006.0 - 0.0
23/10:30pm 11.2 7.3 6.9 75 2.1 WNW 17 26 9 14 1006.0 - 0.0
23/10:00pm 11.0 7.1 7.1 77 1.9 W 17 28 9 15 1006.6 - 0.0
23/09:30pm 10.7 8.1 7.6 81 1.5 W 11 24 6 13 1006.3 - 0.0
23/09:00pm 10.9 8.7 8.0 82 1.4 W 9 15 5 8 1006.4 1006.4 0.0
23/08:30pm 11.2 9.0 7.7 79 1.7 W 9 13 5 7 1006.0 - 0.0
23/08:00pm 11.5 9.6 7.6 77 1.9 WSW 7 17 4 9 1005.8 - 0.0
23/07:30pm 12.1 9.8 7.4 73 2.3 WSW 9 15 5 8 1005.5 - 0.0
23/07:00pm 12.8 10.0 7.0 68 2.9 WSW 11 20 6 11 1004.9 - 0.0
23/06:30pm 13.7 10.9 6.8 63 3.4 WSW 11 20 6 11 1004.4 - 0.0
23/06:00pm 14.6 10.6 6.7 59 3.9 WSW 17 28 9 15 1004.1 1004.1 0.0
23/05:30pm 15.9 11.3 6.6 54 4.6 W 20 35 11 19 1003.7 - 0.0
23/05:00pm 16.9 12.5 7.5 54 4.8 WSW 20 43 11 23 1003.2 - 0.0
23/04:30pm 17.6 12.4 7.1 50 5.4 W 24 44 13 24 1002.8 - 0.0
23/04:00pm 18.5 12.0 6.4 45 6.1 W 30 48 16 26 1002.7 - 0.0
23/03:55pm 18.6 12.3 5.8 43 6.4 W 28 48 15 26 1002.6 - 0.0
23/03:30pm 19.0 13.2 6.1 43 6.5 W 26 41 14 22 1002.7 - 0.0
23/03:00pm 19.6 14.8 5.6 40 7.1 W 20 43 11 23 1002.7 1002.6 0.0
23/02:32pm 19.5 13.2 5.6 40 7.0 W 28 50 15 27 1002.6 - 0.0
23/02:30pm 19.6 14.1 6.0 41 6.9 W 24 50 13 27 1002.6 - 0.0
23/02:00pm 20.0 14.3 6.7 42 6.8 W 26 41 14 22 1002.1 - 0.0
23/01:30pm 20.5 14.7 7.8 44 6.7 W 28 43 15 23 1001.7 - 0.0
23/01:13pm 20.5 14.5 7.2 42 6.9 W 28 52 15 28 1001.6 - 0.0
23/01:00pm 21.0 14.8 8.0 43 6.9 W 30 46 16 25 1001.4 - 0.0
23/12:30pm 21.5 14.5 6.2 37 7.9 W 32 50 17 27 1001.1 - 0.0
23/12:00pm 22.1 13.5 4.6 32 8.8 W 39 70 21 38 1000.7 1000.6 0.0
23/11:30am 21.7 15.4 8.9 44 6.9 WNW 32 52 17 28 1000.8 - 0.0
23/11:25am 21.4 14.6 6.9 39 7.6 WNW 32 52 17 28 1000.9 - 0.0
23/11:00am 21.3 17.0 9.5 47 6.4 WNW 22 43 12 23 1000.8 - 0.0
23/10:30am 19.9 14.5 9.5 51 5.6 WNW 28 44 15 24 1001.2 - 0.0
23/10:00am 20.5 16.8 9.4 49 6.0 WNW 19 32 10 17 1000.9 - 0.0
23/09:30am 19.9 16.2 9.5 51 5.6 WNW 19 26 10 14 1000.6 - 0.0
23/09:00am 18.9 15.0 8.6 51 5.5 NW 19 28 10 15 1000.6 1000.5 0.0
23/08:30am 18.4 14.0 7.2 48 5.8 NW 20 32 11 17 1000.2 - 0.0
23/08:00am 18.2 13.4 5.8 44 6.2 WNW 20 32 11 17 999.3 - 0.0
23/07:30am 18.3 13.2 3.0 36 7.2 NW 19 33 10 18 998.5 - 0.0
23/07:00am 18.3 14.5 1.8 33 7.6 WNW 11 33 6 18 997.9 - 0.0
23/06:30am 15.6 13.2 2.1 40 6.1 NNW 4 11 2 6 997.1 - 0.0
23/06:00am 16.0 13.1 1.7 38 6.5 N 6 13 3 7 997.0 996.9 0.0
23/05:30am 15.8 12.5 2.2 40 6.2 ENE 9 11 5 6 997.0 - 0.0
23/05:00am 15.4 12.2 2.9 43 5.8 E 9 13 5 7 997.2 - 0.0
23/04:30am 15.0 11.8 3.2 45 5.5 NW 9 20 5 11 997.6 - 0.0
23/04:00am 14.6 12.0 4.0 49 5.0 NE 7 17 4 9 997.4 - 0.0
23/03:30am 10.8 9.2 4.7 66 2.8 W 2 7 1 4 997.8 - 0.0
23/03:00am 10.7 8.9 5.5 70 2.5 SSW 4 7 2 4 998.5 998.4 0.0
23/02:30am 10.1 8.4 6.1 76 1.9 NNW 4 7 2 4 998.9 - 0.0
23/02:00am 11.0 8.5 6.6 74 2.1 ENE 9 13 5 7 999.7 - 0.0
23/01:30am 10.4 9.7 7.1 80 1.6 CALM 0 0 0 0 1000.7 - 0.0
23/01:00am 10.9 10.2 7.0 77 1.9 CALM 0 0 0 0 1002.1 - 0.0
23/12:30am 10.4 9.7 7.1 80 1.6 CALM 0 0 0 0 1002.8 - 0.0
23/12:00am 10.7 10.1 7.6 81 1.5 CALM 0 0 0 0 1003.3 1003.3 0.0
 
Date/Time
CST
Temp
°C
App
Temp
°C
Dew
Point
°C
Rel
Hum
%
Delta-T
°C
Wind Press
QNH
hPa
Press
MSL
hPa
Rain since
9am
mm
Dir  Spd
km/h
Gust
km/h
Spd
kts
Gust
kts
22/11:30pm 11.1 10.2 7.6 79 1.7 ESE 2 7 1 4 1003.7 - 0.0
22/11:00pm 11.8 11.2 7.5 75 2.1 CALM 0 0 0 0 1003.9 - 0.0
22/10:30pm 12.4 10.5 7.5 72 2.4 E 7 9 4 5 1004.2 - 0.0
22/10:00pm 13.2 12.6 7.6 69 2.8 CALM 0 0 0 0 1004.2 - 0.0
22/09:30pm 13.4 12.8 7.6 68 2.9 CALM 0 6 0 3 1004.1 - 0.0

Other Formats:

Comma delimited format used in spreadsheet applications
http://www.bom.gov.au/fwo/IDS60801/IDS60801.95667.axf

JavaScript Object Notation format (JSON) in row-major order
http://www.bom.gov.au/fwo/IDS60801/IDS60801.95667.json